Time;durP1;ratioP1;P1;durP2;ratioP2;P2;SDS_P1;SDS_P2;PMS_P1;PMS_P2;Temp;Humidity;BMP_temperature;BMP_pressure;BME280_temperature;BME280_humidity;BME280_pressure;Samples;Min_cycle;Max_cycle;Signal;HPM_P1;HPM_P2
2022/05/06 00:01:43;;;;;;;;;;;;;;;10.80;100.00;102524.22;2612476;36;20033;-53
2022/05/06 00:04:11;;;;;;;;;;;;;;;10.88;100.00;102519.25;2611159;36;19961;-52
2022/05/06 00:06:40;;;;;;;;;;;;;;;11.21;100.00;102531.50;2613244;36;20042;-51
2022/05/06 00:09:08;;;;;;;;;;;;;;;11.44;100.00;102521.94;2612535;31;19958;-53
2022/05/06 00:11:39;;;;;;;;;;;;;;;11.57;100.00;102528.22;2612170;31;19938;-51
2022/05/06 00:14:07;;;;;;;;;;;;;;;11.76;100.00;102532.38;2613898;31;20493;-52
2022/05/06 00:16:38;;;;;;;;;;;;;;;11.83;100.00;102531.00;2613975;54;20070;-53
2022/05/06 00:19:06;;;;;;;;;;;;;;;11.81;100.00;102532.94;2612925;36;20097;-57
2022/05/06 00:21:35;;;;;;;;;;;;;;;11.78;100.00;102532.28;2612764;36;20841;-51
2022/05/06 00:24:03;;;;;;;;;;;;;;;11.72;100.00;102536.28;2612620;36;20057;-55
2022/05/06 00:26:31;;;;;;;;;;;;;;;11.76;100.00;102537.78;2612729;36;20041;-56
2022/05/06 00:29:02;;;;;;;;;;;;;;;11.87;100.00;102524.44;2612684;36;20034;-51
2022/05/06 00:31:30;;;;;;;;;;;;;;;11.83;100.00;102535.53;2611816;36;20436;-59
2022/05/06 00:33:58;;;;;;;;;;;;;;;11.75;100.00;102525.28;2612352;36;19980;-56
2022/05/06 00:36:26;;;;;;;;;;;;;;;11.77;100.00;102526.03;2612674;36;19969;-52
2022/05/06 00:38:54;;;;;;;;;;;;;;;11.75;100.00;102533.38;2612792;36;20673;-50
2022/05/06 00:41:22;;;;;;;;;;;;;;;11.74;100.00;102528.94;2613108;36;19946;-50
2022/05/06 00:43:50;;;;;;;;;;;;;;;11.69;100.00;102522.97;2613050;36;19985;-49
2022/05/06 00:46:21;;;;;;;;;;;;;;;11.68;100.00;102515.88;2612689;36;20054;-51
2022/05/06 00:48:50;;;;;;;;;;;;;;;11.79;100.00;102521.38;2612814;36;19966;-50
2022/05/06 00:51:19;;;;;;;;;;;;;;;11.87;100.00;102515.50;2612981;31;20404;-59
2022/05/06 00:53:47;;;;;;;;;;;;;;;11.87;100.00;102519.03;2612676;36;19947;-51
2022/05/06 00:56:17;;;;;;;;;;;;;;;11.94;100.00;102522.25;2612683;36;20715;-57
2022/05/06 00:58:46;;;;;;;;;;;;;;;11.80;100.00;102519.56;2613109;36;19969;-48
2022/05/06 01:01:14;;;;;;;;;;;;;;;11.78;100.00;102519.69;2613323;36;20025;-56
2022/05/06 01:03:45;;;;;;;;;;;;;;;11.77;100.00;102517.94;2610900;36;20443;-52
2022/05/06 01:06:13;;;;;;;;;;;;;;;11.73;100.00;102524.50;2612101;36;19957;-51
2022/05/06 01:08:42;;;;;;;;;;;;;;;11.88;100.00;102515.38;2611777;36;20543;-50
2022/05/06 01:11:10;;;;;;;;;;;;;;;11.92;100.00;102519.63;2613000;36;19954;-51
2022/05/06 01:13:43;;;;;;;;;;;;;;;12.03;100.00;102520.75;2611817;36;20038;-51
2022/05/06 01:16:11;;;;;;;;;;;;;;;11.62;100.00;102518.97;2612871;36;20466;-50
2022/05/06 01:18:39;;;;;;;;;;;;;;;11.66;100.00;102528.56;2612640;36;20451;-53
2022/05/06 01:21:11;;;;;;;;;;;;;;;11.67;100.00;102527.63;2613043;36;20534;-53
2022/05/06 01:23:42;;;;;;;;;;;;;;;11.64;100.00;102523.28;2612543;36;20026;-49
2022/05/06 01:26:10;;;;;;;;;;;;;;;11.63;100.00;102523.38;2612435;31;20040;-50
2022/05/06 01:28:39;;;;;;;;;;;;;;;11.67;100.00;102527.63;2609822;31;19961;-52
2022/05/06 01:31:08;;;;;;;;;;;;;;;11.54;100.00;102525.75;2612909;36;20760;-52
2022/05/06 01:33:37;;;;;;;;;;;;;;;11.55;100.00;102522.06;2612809;36;19946;-49
2022/05/06 01:36:06;;;;;;;;;;;;;;;11.55;100.00;102524.75;2613578;36;19950;-53
2022/05/06 01:38:37;;;;;;;;;;;;;;;11.43;100.00;102520.19;2613300;31;19954;-57
2022/05/06 01:41:09;;;;;;;;;;;;;;;11.41;100.00;102527.53;2613693;36;20081;-55
2022/05/06 01:43:42;;;;;;;;;;;;;;;11.53;100.00;102525.84;2614053;31;19974;-50
2022/05/06 01:46:13;;;;;;;;;;;;;;;11.59;100.00;102520.03;2614231;36;19950;-53
2022/05/06 01:48:42;;;;;;;;;;;;;;;11.51;100.00;102525.94;2613716;36;20295;-51
2022/05/06 01:51:12;;;;;;;;;;;;;;;11.60;100.00;102520.88;2613692;36;20431;-50
2022/05/06 01:53:40;;;;;;;;;;;;;;;11.84;100.00;102527.34;2613565;36;20038;-58
2022/05/06 01:56:11;;;;;;;;;;;;;;;11.50;100.00;102518.81;2613630;36;20259;-55
2022/05/06 01:58:40;;;;;;;;;;;;;;;11.57;100.00;102527.34;2613651;36;20045;-53
2022/05/06 02:01:08;;;;;;;;;;;;;;;11.65;100.00;102535.81;2613843;36;19966;-51
2022/05/06 02:06:16;;;;;;;;;;;;;;;11.50;100.00;102529.59;2613637;36;19950;-55
2022/05/06 02:08:44;;;;;;;;;;;;;;;11.48;100.00;102534.22;2613115;36;20090;-50
2022/05/06 02:11:15;;;;;;;;;;;;;;;11.41;100.00;102532.91;2613923;36;20132;-53
2022/05/06 02:13:43;;;;;;;;;;;;;;;11.27;100.00;102532.94;2613984;36;20073;-50
2022/05/06 02:16:11;;;;;;;;;;;;;;;11.42;100.00;102529.22;2613519;31;20619;-53
2022/05/06 02:18:39;;;;;;;;;;;;;;;11.53;100.00;102524.00;2613294;36;20042;-55
2022/05/06 02:21:07;;;;;;;;;;;;;;;11.61;100.00;102517.25;2613372;36;20029;-50
2022/05/06 02:23:35;;;;;;;;;;;;;;;11.35;100.00;102522.50;2613605;36;20070;-56
2022/05/06 02:26:03;;;;;;;;;;;;;;;11.52;100.00;102527.66;2614367;31;20021;-53
2022/05/06 02:28:34;;;;;;;;;;;;;;;11.34;100.00;102528.88;2613465;36;20006;-52
2022/05/06 02:33:43;;;;;;;;;;;;;;;11.22;100.00;102527.84;2613129;36;19946;-50
2022/05/06 02:36:11;;;;;;;;;;;;;;;11.39;100.00;102534.81;2612198;31;19977;-50
2022/05/06 02:38:39;;;;;;;;;;;;;;;11.51;100.00;102528.66;2613112;36;20275;-55
2022/05/06 02:41:08;;;;;;;;;;;;;;;11.39;100.00;102524.03;2613821;36;20001;-51
2022/05/06 02:43:40;;;;;;;;;;;;;;;11.32;100.00;102525.41;2614047;36;20379;-51
2022/05/06 02:46:08;;;;;;;;;;;;;;;11.37;100.00;102520.59;2613292;36;20058;-50
2022/05/06 02:48:36;;;;;;;;;;;;;;;11.50;100.00;102526.06;2613041;36;19975;-53
2022/05/06 02:51:04;;;;;;;;;;;;;;;11.43;100.00;102524.72;2613759;36;19946;-51
2022/05/06 02:53:32;;;;;;;;;;;;;;;11.50;100.00;102524.22;2613502;36;20001;-52
2022/05/06 02:56:00;;;;;;;;;;;;;;;11.42;100.00;102526.53;2613124;36;20037;-50
2022/05/06 02:58:28;;;;;;;;;;;;;;;11.56;100.00;102531.88;2613357;36;20426;-54
2022/05/06 03:00:58;;;;;;;;;;;;;;;11.63;100.00;102536.88;2613623;36;20074;-57
2022/05/06 03:03:26;;;;;;;;;;;;;;;11.36;100.00;102532.31;2613169;36;20038;-52
2022/05/06 03:05:54;;;;;;;;;;;;;;;11.28;100.00;102537.34;2613559;36;20041;-54
2022/05/06 03:08:22;;;;;;;;;;;;;;;11.44;100.00;102526.44;2613092;36;20062;-55
2022/05/06 03:10:50;;;;;;;;;;;;;;;11.48;100.00;102531.50;2613468;36;20046;-50
2022/05/06 03:13:18;;;;;;;;;;;;;;;11.50;100.00;102529.59;2613479;36;20057;-49
2022/05/06 03:15:46;;;;;;;;;;;;;;;11.36;100.00;102532.31;2613727;36;19950;-56
2022/05/06 03:18:17;;;;;;;;;;;;;;;11.34;100.00;102528.88;2613081;36;20062;-53
2022/05/06 03:20:45;;;;;;;;;;;;;;;11.51;100.00;102525.06;2613377;36;20060;-55
2022/05/06 03:23:16;;;;;;;;;;;;;;;11.30;100.00;102528.19;2613096;36;19989;-60
2022/05/06 03:25:44;;;;;;;;;;;;;;;11.30;100.00;102527.34;2613719;36;20026;-50
2022/05/06 03:28:12;;;;;;;;;;;;;;;11.28;100.00;102529.25;2612776;36;20037;-58
2022/05/06 03:30:44;;;;;;;;;;;;;;;11.19;100.00;102528.91;2613086;36;20573;-53
2022/05/06 03:33:15;;;;;;;;;;;;;;;11.10;100.00;102529.50;2613331;36;20454;-58
2022/05/06 03:35:46;;;;;;;;;;;;;;;11.05;100.00;102535.16;2612516;31;19950;-53
2022/05/06 03:38:14;;;;;;;;;;;;;;;11.05;100.00;102537.00;2610737;36;19946;-56
2022/05/06 03:40:42;;;;;;;;;;;;;;;10.83;100.00;102540.19;2612750;36;19962;-50
2022/05/06 03:43:10;;;;;;;;;;;;;;;10.75;100.00;102540.69;2613101;36;19957;-54
2022/05/06 03:45:39;;;;;;;;;;;;;;;10.67;100.00;102542.97;2611504;36;20415;-55
2022/05/06 03:48:08;;;;;;;;;;;;;;;10.79;100.00;102535.97;2612331;36;19950;-52
2022/05/06 03:53:19;;;;;;;;;;;;;;;10.69;100.00;102535.69;2612577;31;20442;-53
2022/05/06 03:55:47;;;;;;;;;;;;;;;10.81;100.00;102528.66;2613434;36;20923;-52
2022/05/06 03:58:15;;;;;;;;;;;;;;;10.70;100.00;102532.00;2613482;36;20084;-52
2022/05/06 04:00:43;;;;;;;;;;;;;;;10.64;100.00;102529.72;2613139;36;19984;-51
2022/05/06 04:03:11;;;;;;;;;;;;;;;10.76;100.00;102534.34;2613325;36;20438;-49
2022/05/06 04:05:41;;;;;;;;;;;;;;;10.81;100.00;102529.53;2613314;36;20077;-55
2022/05/06 04:08:09;;;;;;;;;;;;;;;10.71;100.00;102538.28;2613009;36;20473;-54
2022/05/06 04:10:40;;;;;;;;;;;;;;;10.66;100.00;102536.72;2613524;36;20506;-58
2022/05/06 04:13:08;;;;;;;;;;;;;;;10.55;100.00;102532.97;2613472;36;20494;-49
2022/05/06 04:15:36;;;;;;;;;;;;;;;10.34;100.00;102530.66;2613522;36;20022;-58
2022/05/06 04:18:04;;;;;;;;;;;;;;;10.39;100.00;102539.28;2612909;36;20078;-52
2022/05/06 04:25:56;;;;;;;;;;;;;;;10.03;100.00;102543.22;2613217;36;19950;-50
2022/05/06 04:28:24;;;;;;;;;;;;;;;10.24;100.00;102540.19;2613170;36;19946;-54
2022/05/06 04:30:53;;;;;;;;;;;;;;;10.09;100.00;102548.22;2613111;36;20089;-50
2022/05/06 04:33:21;;;;;;;;;;;;;;;10.07;100.00;102544.78;2613294;36;19954;-53
2022/05/06 04:35:49;;;;;;;;;;;;;;;9.97;100.00;102546.28;2612390;36;19954;-54
2022/05/06 04:38:17;;;;;;;;;;;;;;;10.15;100.00;102550.53;2606593;31;20428;-50
2022/05/06 04:40:45;;;;;;;;;;;;;;;10.18;100.00;102553.03;2614057;31;20532;-54
2022/05/06 04:43:16;;;;;;;;;;;;;;;10.02;100.00;102554.06;2612448;36;19953;-51
2022/05/06 04:45:45;;;;;;;;;;;;;;;10.17;100.00;102556.72;2613273;36;19982;-52
2022/05/06 04:48:13;;;;;;;;;;;;;;;10.34;100.00;102562.94;2613047;36;19987;-50
2022/05/06 04:50:42;;;;;;;;;;;;;;;10.41;100.00;102563.41;2613185;36;19947;-59
2022/05/06 04:53:11;;;;;;;;;;;;;;;10.42;100.00;102560.63;2612460;36;19977;-56
2022/05/06 04:55:39;;;;;;;;;;;;;;;10.31;100.00;102558.56;2613175;36;20601;-51
2022/05/06 04:58:08;;;;;;;;;;;;;;;10.08;100.00;102561.78;2612988;36;19972;-59
2022/05/06 05:00:39;;;;;;;;;;;;;;;10.07;100.00;102560.91;2612770;36;20081;-55
2022/05/06 05:03:06;;;;;;;;;;;;;;;10.12;100.00;102558.81;2612898;36;20070;-50
2022/05/06 05:05:34;;;;;;;;;;;;;;;10.38;100.00;102564.50;2613183;36;20041;-57
2022/05/06 05:08:02;;;;;;;;;;;;;;;10.39;100.00;102563.50;2612382;36;20157;-51
2022/05/06 05:10:30;;;;;;;;;;;;;;;10.60;100.00;102564.06;2613482;36;20419;-53
2022/05/06 05:12:58;;;;;;;;;;;;;;;10.38;100.00;102564.50;2613660;31;20078;-55
2022/05/06 05:15:26;;;;;;;;;;;;;;;10.46;100.00;102578.34;2613146;36;20037;-51
2022/05/06 05:17:57;;;;;;;;;;;;;;;10.62;100.00;102572.03;2613958;36;20050;-54
2022/05/06 05:20:25;;;;;;;;;;;;;;;10.34;100.00;102576.41;2613580;36;19957;-54
2022/05/06 05:22:53;;;;;;;;;;;;;;;9.91;100.00;102587.84;2613347;36;20061;-51
2022/05/06 05:25:21;;;;;;;;;;;;;;;10.16;100.00;102584.56;2614164;36;20050;-54
2022/05/06 05:27:49;;;;;;;;;;;;;;;10.14;100.00;102581.13;2613643;36;19998;-55
2022/05/06 05:30:17;;;;;;;;;;;;;;;10.27;100.00;102575.84;2612817;36;20492;-51
2022/05/06 05:32:45;;;;;;;;;;;;;;;10.20;100.00;102587.09;2612344;36;20407;-51
2022/05/06 05:35:16;;;;;;;;;;;;;;;10.29;100.00;102591.91;2613340;31;20054;-50
2022/05/06 05:37:44;;;;;;;;;;;;;;;10.30;100.00;102588.25;2612549;36;19974;-57
2022/05/06 05:40:13;;;;;;;;;;;;;;;10.36;100.00;102587.06;2613296;31;20442;-54
2022/05/06 05:42:41;;;;;;;;;;;;;;;10.34;100.00;102579.94;2613611;36;19958;-50
2022/05/06 05:50:34;;;;;;;;;;;;;;;10.50;100.00;102577.19;2612731;36;19950;-54
2022/05/06 05:53:05;;;;;;;;;;;;;;;10.72;100.00;102578.59;2613259;36;20447;-52
2022/05/06 05:55:33;;;;;;;;;;;;;;;10.97;100.00;102566.28;2612422;36;19973;-54
2022/05/06 05:58:01;;;;;;;;;;;;;;;10.98;100.00;102574.28;2612445;36;19962;-53
2022/05/06 06:00:29;;;;;;;;;;;;;;;11.17;100.00;102571.28;2611806;36;20359;-51
2022/05/06 06:02:59;;;;;;;;;;;;;;;11.02;100.00;102583.88;2611694;36;20490;-53
2022/05/06 06:05:27;;;;;;;;;;;;;;;11.02;100.00;102574.94;2613014;36;19958;-50
2022/05/06 06:07:57;;;;;;;;;;;;;;;11.31;100.00;102570.38;2613277;36;19962;-52
2022/05/06 06:10:25;;;;;;;;;;;;;;;11.19;100.00;102572.03;2612333;31;19946;-60
2022/05/06 06:12:53;;;;;;;;;;;;;;;11.14;100.00;102568.75;2613785;36;20029;-50
2022/05/06 06:15:21;;;;;;;;;;;;;;;11.29;100.00;102577.72;2612469;36;20089;-55
2022/05/06 06:17:49;;;;;;;;;;;;;;;11.53;100.00;102586.03;2611875;36;20424;-50
2022/05/06 06:20:17;;;;;;;;;;;;;;;11.48;100.00;102593.53;2611906;36;20033;-53
2022/05/06 06:22:45;;;;;;;;;;;;;;;11.39;100.00;102583.34;2612390;31;20037;-57
2022/05/06 06:25:16;;;;;;;;;;;;;;;11.48;100.00;102588.13;2613260;36;20029;-53
2022/05/06 06:27:44;;;;;;;;;;;;;;;11.56;100.00;102585.81;2613630;36;20050;-54
2022/05/06 06:30:13;;;;;;;;;;;;;;;11.40;100.00;102585.09;2612510;31;20563;-58
2022/05/06 06:32:41;;;;;;;;;;;;;;;11.25;100.00;102591.44;2612237;36;20452;-51
2022/05/06 06:35:09;;;;;;;;;;;;;;;11.15;100.00;102589.34;2613273;36;20049;-55
2022/05/06 06:37:38;;;;;;;;;;;;;;;11.53;100.00;102595.97;2612410;36;20368;-55
2022/05/06 06:40:06;;;;;;;;;;;;;;;11.45;100.00;102590.19;2612268;36;19947;-52
2022/05/06 06:42:37;;;;;;;;;;;;;;;11.14;100.00;102594.84;2613294;36;20034;-57
2022/05/06 06:45:07;;;;;;;;;;;;;;;11.04;100.00;102599.94;2612636;31;20034;-53
2022/05/06 06:47:35;;;;;;;;;;;;;;;11.11;100.00;102601.28;2613634;31;20035;-58
2022/05/06 06:50:03;;;;;;;;;;;;;;;10.89;100.00;102603.59;2612814;36;19973;-50
2022/05/06 06:52:31;;;;;;;;;;;;;;;11.00;100.00;102614.59;2613115;31;20500;-51
2022/05/06 06:54:59;;;;;;;;;;;;;;;11.24;100.00;102605.91;2612467;36;20033;-52
2022/05/06 06:57:28;;;;;;;;;;;;;;;11.08;100.00;102611.41;2612827;36;20448;-54
2022/05/06 06:59:59;;;;;;;;;;;;;;;11.15;100.00;102610.06;2612221;36;19946;-50
2022/05/06 07:02:28;;;;;;;;;;;;;;;11.04;100.00;102606.22;2613738;36;20429;-58
2022/05/06 07:04:57;;;;;;;;;;;;;;;11.10;100.00;102606.78;2612960;36;19958;-56
2022/05/06 07:12:47;;;;;;;;;;;;;;;11.74;100.00;102620.66;2613280;36;19973;-50
2022/05/06 07:15:18;;;;;;;;;;;;;;;11.74;100.00;102615.25;2612281;31;19969;-54
2022/05/06 07:17:46;;;;;;;;;;;;;;;12.16;100.00;102613.41;2614109;31;20435;-58
2022/05/06 07:20:14;;;;;;;;;;;;;;;12.34;100.00;102613.13;2612381;36;20137;-52
2022/05/06 07:22:42;;;;;;;;;;;;;;;12.21;100.00;102608.53;2612880;36;20479;-54
2022/05/06 07:25:10;;;;;;;;;;;;;;;11.89;100.00;102616.94;2613008;36;20038;-53
2022/05/06 07:27:38;;;;;;;;;;;;;;;11.57;100.00;102611.84;2613292;36;20879;-50
2022/05/06 07:30:08;;;;;;;;;;;;;;;12.01;100.00;102615.28;2612516;32;20081;-54
2022/05/06 07:32:38;;;;;;;;;;;;;;;12.11;100.00;102615.53;2604504;36;19958;-54
2022/05/06 07:35:07;;;;;;;;;;;;;;;12.46;100.00;102614.13;2612334;36;19946;-53
2022/05/06 07:37:36;;;;;;;;;;;;;;;13.18;100.00;102614.47;2610794;36;20066;-53
2022/05/06 07:40:04;;;;;;;;;;;;;;;13.03;100.00;102620.94;2611309;36;20424;-54
2022/05/06 07:42:33;;;;;;;;;;;;;;;12.60;100.00;102619.41;2612020;36;20038;-58
2022/05/06 07:45:01;;;;;;;;;;;;;;;12.26;100.00;102624.44;2612438;36;19987;-53
2022/05/06 07:47:29;;;;;;;;;;;;;;;12.10;100.00;102619.19;2611869;36;20469;-56
2022/05/06 07:50:00;;;;;;;;;;;;;;;12.53;100.00;102619.00;2612290;36;19974;-53
2022/05/06 07:52:28;;;;;;;;;;;;;;;12.48;100.00;102610.34;2611993;31;20453;-52
2022/05/06 07:54:56;;;;;;;;;;;;;;;12.44;100.00;102615.09;2612638;36;20078;-51
2022/05/06 07:57:24;;;;;;;;;;;;;;;12.58;100.00;102614.13;2613075;36;19950;-56
2022/05/06 07:59:52;;;;;;;;;;;;;;;12.66;100.00;102610.03;2613157;36;20062;-55
2022/05/06 08:05:18;;;;;;;;;;;;;;;12.98;100.00;102615.88;2610979;31;20394;-54
2022/05/06 08:07:46;;;;;;;;;;;;;;;13.24;100.00;102623.97;2611161;36;19950;-53
2022/05/06 08:10:14;;;;;;;;;;;;;;;13.50;100.00;102616.72;2612476;36;19946;-52
2022/05/06 08:12:42;;;;;;;;;;;;;;;13.69;100.00;102607.22;2612360;36;19969;-51
2022/05/06 08:15:11;;;;;;;;;;;;;;;13.82;100.00;102610.75;2611274;36;20026;-54
2022/05/06 08:17:40;;;;;;;;;;;;;;;13.19;100.00;102610.78;2612939;36;19946;-55
2022/05/06 08:20:09;;;;;;;;;;;;;;;13.33;100.00;102610.63;2612542;36;20033;-50
2022/05/06 08:22:40;;;;;;;;;;;;;;;13.33;100.00;102601.66;2611188;36;20401;-50
2022/05/06 08:25:09;;;;;;;;;;;;;;;13.82;100.00;102602.63;2610460;36;20034;-50
2022/05/06 08:27:40;;;;;;;;;;;;;;;13.97;100.00;102596.06;2611524;36;19969;-57
2022/05/06 08:30:09;;;;;;;;;;;;;;;13.78;100.00;102602.00;2610677;36;20515;-53
2022/05/06 08:32:38;;;;;;;;;;;;;;;14.06;100.00;102593.63;2612695;36;19954;-59
2022/05/06 08:35:06;;;;;;;;;;;;;;;14.16;100.00;102595.53;2610685;36;19977;-54
2022/05/06 08:37:45;;;;;;;;;;;;;;;14.07;100.00;102587.25;2610651;36;20033;-59
2022/05/06 08:40:18;;;;;;;;;;;;;;;14.31;100.00;102582.66;2611846;36;20025;-52
2022/05/06 08:42:46;;;;;;;;;;;;;;;14.41;100.00;102590.06;2612773;36;20515;-51
2022/05/06 08:53:19;;;;;;;;;;;;;;;14.47;100.00;102582.34;2612337;36;19947;-53
2022/05/06 08:55:47;;;;;;;;;;;;;;;14.79;100.00;102578.97;2611611;36;19947;-49
2022/05/06 08:58:15;;;;;;;;;;;;;;;14.56;100.00;102580.78;2611051;36;20425;-52
2022/05/06 09:00:43;;;;;;;;;;;;;;;14.82;100.00;102572.44;2610987;36;20069;-49
2022/05/06 09:03:12;;;;;;;;;;;;;;;15.00;100.00;102568.28;2612628;36;19981;-60
2022/05/06 09:05:50;;;;;;;;;;;;;;;15.34;100.00;102562.81;2613525;36;19993;-51
2022/05/06 09:08:21;;;;;;;;;;;;;;;15.08;100.00;102564.94;2613812;36;20459;-54
2022/05/06 09:11:04;;;;;;;;;;;;;;;15.21;100.00;102553.97;2613131;31;19980;-54
2022/05/06 09:13:32;;;;;;;;;;;;;;;15.36;100.00;102558.13;2611688;31;20041;-51
2022/05/06 09:19:10;;;;;;;;;;;;;;;15.92;100.00;102553.56;2612008;31;20340;-58
2022/05/06 09:21:38;;;;;;;;;;;;;;;16.31;100.00;102551.13;2613031;36;20498;-55
2022/05/06 09:24:21;;;;;;;;;;;;;;;16.55;100.00;102548.16;2612977;31;19948;-54
2022/05/06 09:27:00;;;;;;;;;;;;;;;16.32;100.00;102552.00;2612087;36;19954;-53
2022/05/06 09:29:31;;;;;;;;;;;;;;;16.19;100.00;102552.19;2613486;36;20140;-54
2022/05/06 09:32:14;;;;;;;;;;;;;;;16.22;100.00;102554.63;2608962;31;19950;-52
2022/05/06 09:34:42;;;;;;;;;;;;;;;16.88;100.00;102558.94;2613075;36;19973;-54
2022/05/06 09:37:10;;;;;;;;;;;;;;;16.94;100.00;102556.50;2610828;36;20251;-55
2022/05/06 09:39:41;;;;;;;;;;;;;;;17.20;100.00;102550.63;2611695;36;20054;-55
2022/05/06 09:42:10;;;;;;;;;;;;;;;17.77;100.00;102537.25;2612934;36;20037;-55
2022/05/06 09:44:38;;;;;;;;;;;;;;;18.28;100.00;102548.00;2610567;36;19954;-56
2022/05/06 09:47:11;;;;;;;;;;;;;;;17.85;100.00;102540.09;2611934;36;19972;-58
2022/05/06 09:49:42;;;;;;;;;;;;;;;17.92;100.00;102534.09;2612878;36;19950;-54
2022/05/06 09:52:11;;;;;;;;;;;;;;;17.83;100.00;102536.69;2612373;36;19977;-55
2022/05/06 09:54:44;;;;;;;;;;;;;;;17.57;100.00;102549.13;2614107;31;20705;-53
2022/05/06 09:57:12;;;;;;;;;;;;;;;17.76;100.00;102542.84;2613090;36;19957;-56
2022/05/06 09:59:41;;;;;;;;;;;;;;;17.74;100.00;102526.66;2612543;36;20473;-56
2022/05/06 10:02:10;;;;;;;;;;;;;;;18.39;100.00;102537.78;2611818;31;20073;-54
2022/05/06 10:04:38;;;;;;;;;;;;;;;18.27;100.00;102538.09;2612567;36;19972;-54
2022/05/06 10:07:08;;;;;;;;;;;;;;;18.69;100.00;102529.53;2611942;36;19973;-51
2022/05/06 10:09:39;;;;;;;;;;;;;;;18.71;100.00;102530.25;2611466;36;20061;-54
2022/05/06 10:12:11;;;;;;;;;;;;;;;18.42;100.00;102531.19;2612873;36;19989;-56
2022/05/06 10:14:41;;;;;;;;;;;;;;;18.24;100.00;102536.56;2613396;36;19950;-54
2022/05/06 10:17:10;;;;;;;;;;;;;;;18.27;100.00;102538.97;2613411;36;19954;-58
2022/05/06 10:19:49;;;;;;;;;;;;;;;18.78;100.00;102534.09;2612598;36;19969;-55
2022/05/06 10:22:17;;;;;;;;;;;;;;;18.85;100.00;102520.72;2613005;36;20374;-55
2022/05/06 10:24:49;;;;;;;;;;;;;;;19.38;100.00;102528.22;2612502;36;20085;-55
2022/05/06 10:32:25;;;;;;;;;;;;;;;19.71;100.00;102516.78;2613202;36;20747;-53
2022/05/06 10:33:14;;;;;;;;;;;;;;;19.44;100.00;102511.22;2612689;36;19969;-55
2022/05/06 10:35:43;;;;;;;;;;;;;;;20.25;100.00;102509.41;2612402;36;20037;-55
2022/05/06 10:38:19;;;;;;;;;;;;;;;20.29;100.00;102512.69;2612503;36;19974;-54
2022/05/06 10:40:52;;;;;;;;;;;;;;;20.14;100.00;102496.00;2613845;31;19954;-52
2022/05/06 10:43:35;;;;;;;;;;;;;;;20.83;100.00;102502.44;2614464;36;20449;-54
2022/05/06 10:46:06;;;;;;;;;;;;;;;21.03;100.00;102484.88;2611790;36;19992;-51
2022/05/06 10:48:34;;;;;;;;;;;;;;;20.86;100.00;102501.22;2613224;31;20025;-56
2022/05/06 10:51:24;;;;;;;;;;;;;;;20.72;100.00;102493.66;2613339;36;20533;-54
2022/05/06 10:53:53;;;;;;;;;;;;;;;20.36;100.00;102488.28;2612138;36;19946;-57
2022/05/06 10:56:21;;;;;;;;;;;;;;;20.08;100.00;102497.50;2613292;36;20446;-51
2022/05/06 10:58:57;;;;;;;;;;;;;;;19.53;100.00;102486.72;2612716;36;20414;-52
2022/05/06 11:01:29;;;;;;;;;;;;;;;19.81;100.00;102484.78;2612737;36;20495;-53
2022/05/06 11:03:57;;;;;;;;;;;;;;;20.53;100.00;102486.50;2611026;36;20425;-55
2022/05/06 11:06:25;;;;;;;;;;;;;;;20.86;100.00;102490.28;2605446;36;19951;-54
2022/05/06 11:08:54;;;;;;;;;;;;;;;21.44;100.00;102477.63;2612368;31;20073;-48
2022/05/06 11:11:22;;;;;;;;;;;;;;;21.07;100.00;102475.28;2611737;36;19955;-54
2022/05/06 11:13:52;;;;;;;;;;;;;;;20.37;100.00;102484.53;2612125;36;20066;-54
2022/05/06 11:16:22;;;;;;;;;;;;;;;20.96;100.00;102481.94;2612858;36;19946;-54
2022/05/06 11:18:53;;;;;;;;;;;;;;;20.81;97.92;102481.72;2613055;36;20527;-55
2022/05/06 11:21:22;;;;;;;;;;;;;;;20.76;100.00;102479.47;2610793;36;19950;-54
2022/05/06 11:23:50;;;;;;;;;;;;;;;20.62;92.87;102478.16;2612209;36;19961;-58
2022/05/06 11:26:25;;;;;;;;;;;;;;;20.80;98.52;102475.41;2613636;36;20034;-54
2022/05/06 11:29:02;;;;;;;;;;;;;;;21.70;89.34;102465.66;2613222;36;20633;-58
2022/05/06 11:31:30;;;;;;;;;;;;;;;21.60;90.71;102464.97;2613227;31;19946;-55
2022/05/06 11:34:04;;;;;;;;;;;;;;;21.39;87.02;102458.06;2613107;36;19954;-54
2022/05/06 11:36:32;;;;;;;;;;;;;;;21.03;92.59;102452.88;2612665;36;20042;-53
2022/05/06 11:39:00;;;;;;;;;;;;;;;21.63;88.97;102454.56;2612756;36;19954;-54
2022/05/06 11:41:30;;;;;;;;;;;;;;;22.30;77.86;102458.94;2613564;36;20456;-55
2022/05/06 11:44:07;;;;;;;;;;;;;;;22.25;78.42;102455.88;2612878;36;19970;-56
2022/05/06 11:49:29;;;;;;;;;;;;;;;22.29;80.10;102449.00;2613596;36;19993;-55
2022/05/06 11:51:57;;;;;;;;;;;;;;;22.23;76.22;102446.94;2613371;36;20779;-53
2022/05/06 11:54:25;;;;;;;;;;;;;;;22.63;70.18;102447.03;2612835;36;20159;-55
2022/05/06 11:56:54;;;;;;;;;;;;;;;22.94;68.76;102441.59;2612859;36;20069;-57
2022/05/06 11:59:22;;;;;;;;;;;;;;;22.78;62.37;102441.69;2612753;36;20081;-55
2022/05/06 12:01:50;;;;;;;;;;;;;;;22.07;69.16;102447.84;2613451;36;19968;-54
2022/05/06 12:04:18;;;;;;;;;;;;;;;22.36;69.11;102439.09;2612835;36;20030;-54
2022/05/06 12:06:53;;;;;;;;;;;;;;;22.10;66.93;102435.66;2613199;36;20066;-55
2022/05/06 12:09:24;;;;;;;;;;;;;;;21.65;72.33;102435.19;2612937;36;19946;-54
2022/05/06 12:12:04;;;;;;;;;;;;;;;22.38;69.70;102439.75;2612515;36;20392;-55
2022/05/06 12:14:32;;;;;;;;;;;;;;;22.24;63.37;102434.94;2611303;36;19946;-54
2022/05/06 12:17:00;;;;;;;;;;;;;;;22.63;66.07;102439.66;2610804;31;19988;-52
2022/05/06 12:19:35;;;;;;;;;;;;;;;22.91;63.40;102431.81;2611675;36;20054;-58
2022/05/06 12:22:10;;;;;;;;;;;;;;;22.47;66.91;102431.50;2612199;36;19958;-54
2022/05/06 12:24:45;;;;;;;;;;;;;;;22.35;64.99;102431.88;2612326;36;20447;-57
2022/05/06 12:27:13;;;;;;;;;;;;;;;21.88;64.85;102425.25;2611092;36;19981;-57
2022/05/06 12:29:43;;;;;;;;;;;;;;;22.42;65.51;102422.94;2609695;36;19977;-58
2022/05/06 12:32:11;;;;;;;;;;;;;;;22.63;66.24;102425.94;2611132;36;19953;-56
2022/05/06 12:34:39;;;;;;;;;;;;;;;22.57;67.56;102421.19;2611405;36;20030;-55
2022/05/06 12:37:13;;;;;;;;;;;;;;;23.20;63.07;102423.94;2610921;36;19950;-55
2022/05/06 12:39:44;;;;;;;;;;;;;;;22.48;62.62;102411.25;2610457;36;20093;-55
2022/05/06 12:42:15;;;;;;;;;;;;;;;22.35;61.80;102415.41;2611150;36;20383;-54
2022/05/06 12:44:44;;;;;;;;;;;;;;;22.68;63.20;102412.53;2610914;36;19950;-53
2022/05/06 12:49:39;;;;;;;;;;;;;;;22.61;66.29;102407.94;2612091;36;19973;-54
2022/05/06 12:50:02;;;;;;;;;;;;;;;23.26;64.45;102406.72;2609904;36;19977;-55
2022/05/06 12:52:35;;;;;;;;;;;;;;;23.14;62.90;102414.53;2611663;36;20442;-58
2022/05/06 12:55:03;;;;;;;;;;;;;;;23.48;60.14;102410.50;2610640;36;19953;-55
2022/05/06 12:57:31;;;;;;;;;;;;;;;23.42;61.46;102406.63;2611542;36;20546;-54
2022/05/06 12:59:59;;;;;;;;;;;;;;;23.00;62.87;102402.41;2610529;36;20439;-57
2022/05/06 13:02:27;;;;;;;;;;;;;;;23.43;62.23;102396.47;2611045;36;19946;-54
2022/05/06 13:04:56;;;;;;;;;;;;;;;24.04;60.37;102399.22;2610280;36;20058;-55
2022/05/06 13:07:25;;;;;;;;;;;;;;;24.06;60.78;102408.13;2611388;36;19958;-57
2022/05/06 13:09:55;;;;;;;;;;;;;;;23.65;58.38;102411.22;2611569;36;19953;-55
2022/05/06 13:12:23;;;;;;;;;;;;;;;24.12;59.22;102403.75;2611101;36;20783;-56
2022/05/06 13:14:51;;;;;;;;;;;;;;;24.12;59.50;102401.00;2609680;36;20034;-56
2022/05/06 13:17:19;;;;;;;;;;;;;;;24.63;57.94;102408.50;2609808;36;19947;-56
2022/05/06 13:19:47;;;;;;;;;;;;;;;25.42;55.39;102399.44;2609696;36;20397;-55
2022/05/06 13:22:16;;;;;;;;;;;;;;;25.28;54.81;102398.44;2609074;36;20054;-55
2022/05/06 13:24:47;;;;;;;;;;;;;;;25.00;55.89;102398.38;2599990;36;19946;-54